Time;durP1;ratioP1;P1;durP2;ratioP2;P2;SDS_P1;SDS_P2;PMS_P1;PMS_P2;Temp;Humidity;BMP_temperature;BMP_pressure;BME280_temperature;BME280_humidity;BME280_pressure;Samples;Min_cycle;Max_cycle;Signal;HPM_P1;HPM_P2
2023/08/02 00:01:48;;;;;;;0.50;0.40;;;15.60;99.90;;;;;;5058797;28;20438;-79
2023/08/02 00:04:15;;;;;;;0.50;0.40;;;15.60;99.90;;;;;;5059089;28;20447;-79
2023/08/02 00:06:43;;;;;;;0.50;0.40;;;15.50;99.90;;;;;;5059464;28;20984;-80
2023/08/02 00:09:09;;;;;;;0.50;0.40;;;15.50;99.90;;;;;;5058849;28;20436;-80
2023/08/02 00:11:36;;;;;;;0.50;0.40;;;15.50;99.90;;;;;;5059089;28;20450;-80
2023/08/02 00:14:03;;;;;;;0.50;0.40;;;15.50;99.90;;;;;;5056761;28;20941;-80
2023/08/02 00:16:30;;;;;;;0.50;0.40;;;15.50;99.90;;;;;;5038619;28;20464;-79
2023/08/02 00:18:57;;;;;;;0.50;0.40;;;15.50;99.90;;;;;;5038953;28;20485;-80
2023/08/02 00:21:24;;;;;;;0.50;0.40;;;15.50;99.90;;;;;;5039355;28;20440;-80
2023/08/02 00:23:52;;;;;;;0.50;0.40;;;15.40;99.90;;;;;;5039085;28;20449;-80
2023/08/02 00:26:19;;;;;;;0.50;0.40;;;15.40;99.90;;;;;;5038720;28;20464;-79
2023/08/02 00:28:45;;;;;;;0.50;0.40;;;15.40;99.90;;;;;;5038501;28;20433;-80
2023/08/02 00:31:12;;;;;;;0.50;0.40;;;15.40;99.90;;;;;;5038531;28;20799;-80
2023/08/02 00:33:39;;;;;;;0.50;0.40;;;15.40;99.90;;;;;;5038263;28;20958;-78
2023/08/02 00:36:06;;;;;;;0.50;0.40;;;15.40;99.90;;;;;;5037615;28;21060;-80
2023/08/02 00:38:32;;;;;;;0.50;0.30;;;15.40;99.90;;;;;;5038811;28;20437;-80
2023/08/02 00:41:04;;;;;;;0.50;0.40;;;15.40;99.90;;;;;;5038294;28;20820;-80
2023/08/02 00:43:37;;;;;;;0.50;0.40;;;15.40;99.90;;;;;;5038113;28;20458;-80
2023/08/02 00:46:04;;;;;;;0.50;0.43;;;15.40;99.90;;;;;;5038223;28;20467;-79
2023/08/02 00:48:31;;;;;;;0.50;0.40;;;15.30;99.90;;;;;;5038593;28;20444;-80
2023/08/02 00:50:58;;;;;;;0.50;0.40;;;15.30;99.90;;;;;;5038537;28;20440;-80
2023/08/02 00:53:25;;;;;;;0.60;0.53;;;15.20;99.90;;;;;;5038454;28;20440;-80
2023/08/02 00:55:52;;;;;;;0.50;0.40;;;15.20;99.90;;;;;;5037906;28;20461;-79
2023/08/02 00:58:20;;;;;;;0.50;0.40;;;15.20;99.90;;;;;;5038743;28;20805;-80
2023/08/02 01:00:47;;;;;;;0.50;0.40;;;15.20;99.90;;;;;;5038954;28;20429;-80
2023/08/02 01:03:14;;;;;;;0.50;0.40;;;15.10;99.90;;;;;;5038573;28;20443;-80
2023/08/02 01:05:48;;;;;;;0.50;0.40;;;15.10;99.90;;;;;;5037918;28;20465;-79
2023/08/02 01:08:22;;;;;;;0.50;0.40;;;15.00;99.90;;;;;;5038176;28;20447;-79
2023/08/02 01:10:57;;;;;;;0.50;0.40;;;15.00;99.90;;;;;;5038684;28;20434;-80
2023/08/02 01:13:30;;;;;;;0.50;0.40;;;15.00;99.90;;;;;;5038100;28;20440;-79
2023/08/02 01:15:58;;;;;;;0.60;0.40;;;14.90;99.90;;;;;;5037389;28;20472;-77
2023/08/02 01:18:25;;;;;;;0.60;0.60;;;14.90;99.90;;;;;;5037818;28;20455;-80
2023/08/02 01:20:53;;;;;;;0.50;0.40;;;14.90;99.90;;;;;;5037732;28;20513;-80
2023/08/02 01:23:20;;;;;;;0.70;0.57;;;14.80;99.90;;;;;;5037712;28;20443;-79
2023/08/02 01:25:49;;;;;;;0.50;0.40;;;14.80;99.90;;;;;;5037461;28;20467;-79
2023/08/02 01:28:20;;;;;;;0.50;0.40;;;14.80;99.90;;;;;;5037780;28;20440;-78
2023/08/02 01:30:48;;;;;;;0.50;0.40;;;14.80;99.90;;;;;;5038288;28;20522;-80
2023/08/02 01:33:16;;;;;;;0.50;0.40;;;14.80;99.90;;;;;;5037368;28;20442;-80
2023/08/02 01:35:43;;;;;;;0.50;0.40;;;14.80;99.90;;;;;;5037121;28;20466;-80
2023/08/02 01:38:11;;;;;;;0.50;0.40;;;14.70;99.90;;;;;;5046690;28;20446;-79
2023/08/02 01:40:38;;;;;;;0.50;0.40;;;14.70;99.90;;;;;;5057024;28;20481;-80
2023/08/02 01:43:05;;;;;;;0.50;0.40;;;14.70;99.90;;;;;;5056946;28;20446;-81
2023/08/02 01:45:32;;;;;;;0.80;0.63;;;14.70;99.90;;;;;;5056618;28;20542;-79
2023/08/02 01:47:58;;;;;;;0.53;0.53;;;14.70;99.90;;;;;;5057483;28;20448;-79
2023/08/02 01:50:25;;;;;;;0.50;0.40;;;14.70;99.90;;;;;;5057305;28;20470;-81
2023/08/02 01:52:52;;;;;;;0.50;0.40;;;14.70;99.90;;;;;;5057115;28;20811;-79
2023/08/02 01:55:20;;;;;;;0.50;0.40;;;14.70;99.90;;;;;;5057283;28;20454;-80
2023/08/02 01:57:47;;;;;;;0.50;0.40;;;14.70;99.90;;;;;;5057380;28;20438;-80
2023/08/02 02:00:14;;;;;;;0.50;0.40;;;14.70;99.90;;;;;;5057064;28;20479;-80
2023/08/02 02:02:41;;;;;;;0.50;0.30;;;14.70;99.90;;;;;;5057002;28;20920;-80
2023/08/02 02:05:08;;;;;;;0.50;0.40;;;14.70;99.90;;;;;;5056155;28;20462;-79
2023/08/02 02:07:34;;;;;;;0.50;0.40;;;14.70;99.90;;;;;;5057540;28;20498;-79
2023/08/02 02:10:01;;;;;;;0.50;0.40;;;14.80;99.90;;;;;;5057195;28;20429;-80
2023/08/02 02:12:29;;;;;;;0.50;0.50;;;14.80;99.90;;;;;;5056654;28;20445;-80
2023/08/02 02:14:56;;;;;;;0.50;0.40;;;14.80;99.90;;;;;;5055966;28;20463;-80
2023/08/02 02:17:23;;;;;;;0.50;0.40;;;14.80;99.90;;;;;;5056739;28;20507;-80
2023/08/02 02:19:50;;;;;;;0.50;0.40;;;14.80;99.90;;;;;;5056948;28;20476;-79
2023/08/02 02:22:17;;;;;;;0.90;0.90;;;14.90;99.90;;;;;;5056879;28;20439;-80
2023/08/02 02:24:43;;;;;;;0.50;0.40;;;14.90;99.90;;;;;;5056496;28;20549;-80
2023/08/02 02:27:10;;;;;;;0.60;0.60;;;15.00;99.90;;;;;;5056618;28;20531;-77
2023/08/02 02:29:38;;;;;;;0.50;0.40;;;15.10;99.90;;;;;;5057110;28;20444;-81
2023/08/02 02:32:06;;;;;;;0.50;0.33;;;15.20;99.90;;;;;;5056878;28;20439;-80
2023/08/02 02:34:34;;;;;;;0.50;0.40;;;15.20;99.90;;;;;;5056468;28;20437;-80
2023/08/02 02:37:00;;;;;;;0.50;0.40;;;15.20;99.90;;;;;;5057524;28;20432;-79
2023/08/02 02:39:27;;;;;;;0.50;0.40;;;15.30;99.90;;;;;;5056644;28;20481;-80
2023/08/02 02:41:54;;;;;;;0.50;0.40;;;15.30;99.90;;;;;;5056995;28;20447;-79
2023/08/02 02:44:21;;;;;;;0.50;0.40;;;15.30;99.90;;;;;;5056091;28;20939;-78
2023/08/02 02:46:49;;;;;;;0.50;0.40;;;15.40;99.90;;;;;;5056201;28;20458;-80
2023/08/02 02:49:16;;;;;;;0.50;0.40;;;15.30;99.90;;;;;;5056092;28;20438;-81
2023/08/02 02:51:43;;;;;;;0.50;0.40;;;15.30;99.90;;;;;;5056565;28;20441;-80
2023/08/02 02:54:09;;;;;;;0.50;0.40;;;15.30;99.90;;;;;;5055777;28;20439;-79
2023/08/02 02:56:36;;;;;;;0.50;0.40;;;15.30;99.90;;;;;;5057414;28;20466;-79
2023/08/02 02:59:03;;;;;;;0.50;0.40;;;15.30;99.90;;;;;;5060846;28;20444;-80
2023/08/02 03:01:30;;;;;;;1.07;0.70;;;15.30;99.90;;;;;;5060179;28;20937;-79
2023/08/02 03:03:58;;;;;;;0.50;0.40;;;15.40;99.90;;;;;;5060483;28;20446;-80
2023/08/02 03:06:24;;;;;;;0.50;0.40;;;15.40;99.90;;;;;;5060661;28;20542;-75
2023/08/02 03:08:51;;;;;;;0.50;0.40;;;15.50;99.90;;;;;;5060631;28;20519;-79
2023/08/02 03:11:18;;;;;;;0.50;0.40;;;15.50;99.90;;;;;;5060160;28;20790;-79
2023/08/02 03:13:45;;;;;;;0.50;0.40;;;15.60;99.90;;;;;;5059600;28;20446;-79
2023/08/02 03:16:12;;;;;;;0.50;0.40;;;15.60;99.90;;;;;;5059563;28;20550;-80
2023/08/02 03:18:38;;;;;;;0.50;0.40;;;15.60;99.90;;;;;;5059829;28;20534;-79
2023/08/02 03:21:07;;;;;;;0.50;0.40;;;15.60;99.90;;;;;;5060056;28;20475;-79
2023/08/02 03:23:35;;;;;;;0.50;0.40;;;15.50;99.90;;;;;;5032165;28;20444;-80
2023/08/02 03:26:02;;;;;;;0.50;0.40;;;15.60;99.90;;;;;;5040505;28;20462;-80
2023/08/02 03:28:28;;;;;;;0.50;0.40;;;15.60;99.90;;;;;;5040353;28;20436;-80
2023/08/02 03:30:56;;;;;;;0.50;0.40;;;15.60;99.90;;;;;;5040277;28;20431;-80
2023/08/02 03:33:22;;;;;;;0.50;0.40;;;15.60;99.90;;;;;;5040028;28;20436;-80
2023/08/02 03:35:49;;;;;;;0.50;0.30;;;15.70;99.90;;;;;;5039799;28;20836;-79
2023/08/02 03:38:17;;;;;;;0.50;0.40;;;15.70;99.90;;;;;;5040671;28;20519;-80
2023/08/02 03:40:44;;;;;;;0.50;0.40;;;15.70;99.90;;;;;;5039796;28;20480;-80
2023/08/02 03:43:11;;;;;;;0.50;0.40;;;15.80;99.90;;;;;;5040133;28;20433;-79
2023/08/02 03:45:38;;;;;;;0.50;0.40;;;15.80;99.90;;;;;;5039856;28;20459;-80
2023/08/02 03:48:05;;;;;;;0.50;0.40;;;15.80;99.90;;;;;;5040090;28;20440;-79
2023/08/02 03:50:34;;;;;;;0.50;0.40;;;15.80;99.90;;;;;;5040107;28;20439;-75
2023/08/02 03:53:01;;;;;;;0.50;0.30;;;15.90;99.90;;;;;;5039991;28;20437;-77
2023/08/02 03:55:29;;;;;;;0.50;0.40;;;15.90;99.90;;;;;;5039144;28;20456;-79
2023/08/02 03:57:55;;;;;;;0.50;0.33;;;15.90;99.90;;;;;;5040243;28;20433;-80
2023/08/02 04:00:22;;;;;;;0.77;0.77;;;15.90;99.90;;;;;;5039927;28;20545;-79
2023/08/02 04:02:49;;;;;;;0.60;0.60;;;15.80;99.90;;;;;;5040063;28;20433;-80
2023/08/02 04:05:16;;;;;;;0.50;0.30;;;15.90;99.90;;;;;;5038339;28;20460;-80
2023/08/02 04:07:43;;;;;;;0.50;0.40;;;15.80;99.90;;;;;;5039279;28;20451;-79
2023/08/02 04:10:10;;;;;;;0.50;0.30;;;15.90;99.90;;;;;;5039001;28;20445;-80
2023/08/02 04:12:39;;;;;;;0.50;0.40;;;15.90;99.90;;;;;;5051612;28;20988;-79
2023/08/02 04:15:07;;;;;;;0.50;0.40;;;15.90;99.90;;;;;;5058485;28;20470;-79
2023/08/02 04:17:33;;;;;;;0.50;0.33;;;16.00;99.90;;;;;;5059555;28;20467;-80
2023/08/02 04:20:01;;;;;;;0.50;0.40;;;16.00;99.90;;;;;;5058815;28;20546;-81
2023/08/02 04:22:30;;;;;;;0.50;0.40;;;16.00;99.90;;;;;;5059061;28;20933;-80
2023/08/02 04:24:57;;;;;;;0.50;0.40;;;16.00;99.90;;;;;;5058717;28;20558;-81
2023/08/02 04:27:23;;;;;;;0.50;0.40;;;16.00;99.90;;;;;;5058841;28;20461;-79
2023/08/02 04:29:51;;;;;;;0.50;0.40;;;16.00;99.90;;;;;;5058632;28;20439;-80
2023/08/02 04:32:18;;;;;;;0.50;0.33;;;16.00;99.90;;;;;;5058374;28;20431;-79
2023/08/02 04:34:45;;;;;;;0.60;0.60;;;16.10;99.90;;;;;;5058146;28;20470;-81
2023/08/02 04:37:12;;;;;;;0.50;0.40;;;16.10;99.90;;;;;;5057530;28;20522;-79
2023/08/02 04:39:38;;;;;;;0.50;0.40;;;16.00;99.90;;;;;;5057597;28;20440;-79
2023/08/02 04:42:06;;;;;;;0.50;0.40;;;16.10;99.90;;;;;;5057983;28;20469;-81
2023/08/02 04:44:32;;;;;;;0.90;0.70;;;16.10;99.90;;;;;;5056421;28;20431;-79
2023/08/02 04:47:00;;;;;;;0.50;0.40;;;16.00;99.90;;;;;;5056989;28;20446;-78
2023/08/02 04:49:27;;;;;;;0.50;0.40;;;16.00;99.90;;;;;;5057443;28;21182;-80
2023/08/02 04:51:54;;;;;;;0.50;0.40;;;16.10;99.90;;;;;;5056302;28;20436;-80
2023/08/02 04:54:21;;;;;;;0.50;0.40;;;16.10;99.90;;;;;;5055450;28;20439;-80
2023/08/02 04:56:47;;;;;;;0.50;0.40;;;16.10;99.90;;;;;;5056986;28;20471;-80
2023/08/02 04:59:14;;;;;;;0.50;0.40;;;16.20;99.90;;;;;;5056895;28;20433;-79
2023/08/02 05:01:41;;;;;;;0.50;0.40;;;16.20;99.90;;;;;;5037496;28;20481;-80
2023/08/02 05:04:09;;;;;;;0.60;0.40;;;16.20;99.90;;;;;;5036227;28;20444;-79
2023/08/02 05:06:36;;;;;;;0.50;0.40;;;16.20;99.90;;;;;;5037814;28;20492;-79
2023/08/02 05:09:04;;;;;;;0.50;0.40;;;16.30;99.90;;;;;;5039671;28;20441;-80
2023/08/02 05:11:31;;;;;;;0.50;0.40;;;16.30;99.90;;;;;;5040044;28;20447;-80
2023/08/02 05:13:58;;;;;;;0.50;0.40;;;16.30;99.90;;;;;;5040947;28;20495;-80
2023/08/02 05:16:26;;;;;;;0.50;0.40;;;16.40;99.90;;;;;;5038278;28;20480;-77
2023/08/02 05:18:53;;;;;;;0.50;0.40;;;16.40;99.90;;;;;;5038681;28;20441;-81
2023/08/02 05:21:23;;;;;;;0.50;0.40;;;16.50;99.90;;;;;;5038530;28;21020;-79
2023/08/02 05:23:50;;;;;;;0.50;0.40;;;16.50;99.90;;;;;;5039048;28;20468;-80
2023/08/02 05:26:17;;;;;;;0.50;0.40;;;16.60;99.90;;;;;;5040478;28;20464;-79
2023/08/02 05:28:44;;;;;;;0.50;0.40;;;16.60;99.90;;;;;;5038790;28;20443;-80
2023/08/02 05:31:11;;;;;;;0.50;0.40;;;16.60;99.90;;;;;;5041227;28;20431;-80
2023/08/02 05:33:38;;;;;;;0.50;0.40;;;16.70;99.90;;;;;;5041576;28;20463;-79
2023/08/02 05:36:05;;;;;;;0.50;0.40;;;16.70;99.90;;;;;;5041289;28;20463;-80
2023/08/02 05:38:35;;;;;;;0.50;0.40;;;16.70;99.90;;;;;;5040193;28;20505;-79
2023/08/02 05:41:02;;;;;;;0.50;0.40;;;16.70;99.90;;;;;;5039353;28;21012;-79
2023/08/02 05:43:29;;;;;;;0.50;0.40;;;16.70;99.90;;;;;;5038266;28;20441;-80
2023/08/02 05:45:56;;;;;;;0.50;0.40;;;16.70;99.90;;;;;;5052273;28;20555;-79
2023/08/02 05:48:23;;;;;;;2.30;2.10;;;16.70;99.90;;;;;;5060661;28;20528;-80
2023/08/02 05:50:49;;;;;;;0.67;0.67;;;16.60;99.90;;;;;;5059835;28;20428;-80
2023/08/02 05:53:15;;;;;;;0.50;0.40;;;16.50;99.90;;;;;;5059758;28;20450;-79
2023/08/02 05:55:43;;;;;;;0.50;0.40;;;16.50;99.90;;;;;;5060370;28;20494;-80
2023/08/02 05:58:11;;;;;;;0.53;0.50;;;16.50;99.90;;;;;;5059296;28;20257;-79
2023/08/02 06:00:38;;;;;;;0.50;0.40;;;16.50;99.90;;;;;;5058782;28;20537;-80
2023/08/02 06:03:04;;;;;;;2.37;2.20;;;16.50;99.90;;;;;;5054932;28;20433;-80
2023/08/02 06:05:31;;;;;;;0.50;0.30;;;16.50;99.90;;;;;;5038337;28;20981;-80
2023/08/02 06:07:58;;;;;;;0.50;0.40;;;16.40;99.90;;;;;;5038587;28;20862;-79
2023/08/02 06:10:25;;;;;;;0.50;0.50;;;16.40;99.90;;;;;;5036437;28;20441;-77
2023/08/02 06:12:53;;;;;;;0.50;0.40;;;16.40;99.90;;;;;;5037293;28;20443;-80
2023/08/02 06:15:20;;;;;;;0.50;0.40;;;16.30;99.90;;;;;;5038719;28;20579;-81
2023/08/02 06:17:46;;;;;;;0.50;0.40;;;16.30;99.90;;;;;;5039143;28;20439;-80
2023/08/02 06:20:13;;;;;;;0.50;0.40;;;16.30;99.90;;;;;;5038418;28;20503;-78
2023/08/02 06:22:40;;;;;;;0.50;0.40;;;16.40;99.90;;;;;;5036038;28;20447;-80
2023/08/02 06:25:08;;;;;;;2.53;2.00;;;16.30;99.90;;;;;;5036043;28;20464;-80
2023/08/02 06:27:36;;;;;;;0.50;0.40;;;16.30;99.90;;;;;;5047426;28;20464;-81
2023/08/02 06:30:06;;;;;;;0.50;0.50;;;16.20;99.90;;;;;;5058076;28;21035;-80
2023/08/02 06:32:33;;;;;;;0.50;0.40;;;16.20;99.90;;;;;;5062109;28;20466;-80
2023/08/02 06:34:59;;;;;;;0.50;0.40;;;16.20;99.90;;;;;;5061835;28;20458;-79
2023/08/02 06:37:26;;;;;;;0.50;0.40;;;16.10;99.90;;;;;;5062980;28;20440;-80
2023/08/02 06:39:53;;;;;;;0.50;0.40;;;16.10;99.90;;;;;;5062541;28;20526;-79
2023/08/02 06:42:20;;;;;;;0.50;0.40;;;16.10;99.90;;;;;;5063418;28;20483;-79
2023/08/02 06:44:47;;;;;;;0.50;0.50;;;16.10;99.90;;;;;;5067672;28;20479;-81
2023/08/02 06:47:15;;;;;;;0.77;0.77;;;16.10;99.90;;;;;;5069142;28;20446;-80
2023/08/02 06:49:42;;;;;;;1.43;0.60;;;16.10;99.90;;;;;;5068919;28;20534;-81
2023/08/02 06:52:09;;;;;;;0.50;0.40;;;16.10;99.90;;;;;;5067066;28;20860;-80
2023/08/02 06:54:36;;;;;;;0.50;0.40;;;16.10;99.90;;;;;;5063380;28;20443;-80
2023/08/02 06:57:02;;;;;;;0.50;0.40;;;16.10;99.90;;;;;;5064185;28;20435;-79
2023/08/02 06:59:29;;;;;;;0.50;0.33;;;16.10;99.90;;;;;;5064870;28;20534;-77
2023/08/02 07:01:56;;;;;;;0.50;0.40;;;16.10;99.90;;;;;;5066426;28;20571;-80
2023/08/02 07:04:24;;;;;;;0.50;0.40;;;16.00;99.90;;;;;;5065306;28;20444;-80
2023/08/02 07:06:51;;;;;;;1.00;1.00;;;16.00;99.90;;;;;;5065022;28;20844;-80
2023/08/02 07:09:18;;;;;;;1.77;1.67;;;16.00;99.90;;;;;;5065959;28;20835;-80
2023/08/02 07:11:45;;;;;;;0.50;0.30;;;15.90;99.90;;;;;;5065338;28;20431;-80
2023/08/02 07:14:11;;;;;;;0.50;0.40;;;15.90;99.90;;;;;;5059039;28;20527;-80
2023/08/02 07:16:38;;;;;;;0.50;0.40;;;15.90;99.90;;;;;;5044378;28;20532;-80
2023/08/02 07:19:05;;;;;;;0.50;0.40;;;15.90;99.90;;;;;;5044665;28;20433;-80
2023/08/02 07:21:33;;;;;;;0.50;0.33;;;16.00;99.90;;;;;;5043497;28;20477;-80
2023/08/02 07:24:00;;;;;;;0.50;0.40;;;16.00;99.90;;;;;;5044225;28;20460;-79
2023/08/02 07:26:26;;;;;;;0.50;0.40;;;16.00;99.90;;;;;;5042534;28;20474;-78
2023/08/02 07:28:53;;;;;;;0.50;0.33;;;16.00;99.90;;;;;;5046114;28;20443;-80
2023/08/02 07:31:20;;;;;;;0.50;0.40;;;16.00;99.90;;;;;;5062847;28;20440;-80
2023/08/02 07:33:47;;;;;;;0.60;0.50;;;16.00;99.90;;;;;;5062825;28;20526;-80
2023/08/02 07:36:15;;;;;;;0.70;0.60;;;16.00;99.90;;;;;;5057926;28;20464;-81
2023/08/02 07:38:44;;;;;;;0.50;0.40;;;15.90;99.90;;;;;;5039440;28;20436;-78
2023/08/02 07:41:11;;;;;;;1.80;0.80;;;15.90;99.90;;;;;;5035260;28;20479;-76
2023/08/02 07:43:38;;;;;;;0.57;0.57;;;15.90;99.90;;;;;;5032576;28;20448;-74
2023/08/02 07:46:04;;;;;;;1.47;0.90;;;15.90;99.90;;;;;;5035930;28;20530;-80
2023/08/02 07:48:31;;;;;;;0.60;0.50;;;15.90;99.90;;;;;;5035906;28;20432;-74
2023/08/02 07:50:58;;;;;;;0.50;0.40;;;15.90;99.90;;;;;;5034485;28;21148;-78
2023/08/02 07:53:25;;;;;;;2.30;0.83;;;15.90;99.90;;;;;;5034226;28;20433;-77
2023/08/02 07:56:01;;;;;;;0.50;0.40;;;16.00;99.90;;;;;;5033694;28;20491;-78
2023/08/02 07:58:28;;;;;;;1.27;1.17;;;16.10;99.90;;;;;;5041503;28;20971;-78
2023/08/02 08:00:55;;;;;;;0.50;0.40;;;16.00;99.90;;;;;;5050238;28;20487;-78
2023/08/02 08:03:22;;;;;;;1.00;1.00;;;16.10;99.90;;;;;;5033669;28;20443;-78
2023/08/02 08:05:48;;;;;;;0.50;0.40;;;16.20;99.90;;;;;;5033709;28;20464;-79
2023/08/02 08:08:15;;;;;;;0.50;0.40;;;16.30;99.90;;;;;;5034104;28;20433;-79
2023/08/02 08:10:42;;;;;;;0.50;0.40;;;16.40;99.90;;;;;;5033913;28;20809;-79
2023/08/02 08:13:10;;;;;;;0.50;0.40;;;16.50;99.90;;;;;;5034306;28;20436;-79
2023/08/02 08:15:37;;;;;;;0.50;0.40;;;16.60;99.90;;;;;;5033052;28;20469;-79
2023/08/02 08:18:04;;;;;;;0.50;0.40;;;16.60;99.90;;;;;;5034380;28;20467;-79
2023/08/02 08:20:31;;;;;;;0.50;0.33;;;16.70;99.90;;;;;;5042036;28;20511;-79
2023/08/02 08:22:57;;;;;;;0.50;0.40;;;16.90;99.90;;;;;;5053520;28;20876;-79
2023/08/02 08:25:24;;;;;;;0.50;0.40;;;16.90;99.90;;;;;;5053179;28;20456;-79
2023/08/02 08:27:51;;;;;;;0.97;0.60;;;16.90;99.90;;;;;;5052935;28;20440;-78
2023/08/02 08:30:19;;;;;;;0.50;0.40;;;16.90;99.90;;;;;;5053208;28;20446;-78
2023/08/02 08:32:46;;;;;;;1.53;1.43;;;17.00;99.90;;;;;;5052721;28;20432;-78
2023/08/02 08:35:12;;;;;;;0.50;0.30;;;17.10;99.90;;;;;;5052450;28;20466;-78
2023/08/02 08:37:39;;;;;;;0.50;0.40;;;17.20;99.90;;;;;;5052204;28;20839;-78
2023/08/02 08:40:07;;;;;;;0.50;0.40;;;17.10;99.90;;;;;;5032741;28;20440;-77
2023/08/02 08:42:34;;;;;;;0.80;0.80;;;17.20;99.90;;;;;;5032535;28;20491;-78
2023/08/02 08:45:03;;;;;;;0.50;0.50;;;17.20;99.90;;;;;;5032334;28;20459;-80
2023/08/02 08:47:31;;;;;;;0.50;0.37;;;17.20;99.90;;;;;;5032698;28;20432;-74
2023/08/02 08:50:02;;;;;;;0.60;0.50;;;17.30;99.90;;;;;;5032272;28;20965;-78
2023/08/02 08:52:32;;;;;;;0.50;0.30;;;17.50;99.90;;;;;;5032298;28;20973;-79
2023/08/02 08:55:00;;;;;;;0.97;0.70;;;17.60;99.90;;;;;;5031728;28;20461;-78
2023/08/02 08:57:28;;;;;;;1.03;0.80;;;17.70;99.90;;;;;;5032474;28;20446;-78
2023/08/02 08:59:55;;;;;;;0.50;0.40;;;17.70;99.90;;;;;;5032058;28;20869;-79
2023/08/02 09:02:22;;;;;;;0.50;0.50;;;17.80;99.90;;;;;;5032208;28;20488;-78
2023/08/02 09:04:52;;;;;;;0.60;0.50;;;17.90;99.90;;;;;;5041385;28;20467;-77
2023/08/02 09:07:19;;;;;;;0.50;0.40;;;17.90;99.90;;;;;;5051912;28;20438;-79
2023/08/02 09:09:47;;;;;;;0.50;0.40;;;18.00;99.90;;;;;;5051793;28;20820;-78
2023/08/02 09:12:13;;;;;;;0.50;0.40;;;18.00;99.90;;;;;;5052040;28;20432;-78
2023/08/02 09:14:58;;;;;;;0.50;0.43;;;18.00;99.90;;;;;;5051208;28;20455;-77
2023/08/02 09:17:24;;;;;;;0.50;0.30;;;18.10;99.90;;;;;;5051899;28;20454;-79
2023/08/02 09:20:07;;;;;;;0.83;0.83;;;18.10;99.90;;;;;;5051661;28;20448;-78
2023/08/02 09:22:34;;;;;;;0.50;0.50;;;18.10;99.90;;;;;;5051678;28;20480;-78
2023/08/02 09:25:03;;;;;;;0.50;0.40;;;18.30;99.90;;;;;;5051025;28;21041;-78
2023/08/02 09:27:31;;;;;;;0.50;0.40;;;18.40;99.90;;;;;;5052263;22;20503;-81
2023/08/02 09:29:58;;;;;;;0.50;0.30;;;18.50;99.90;;;;;;5045046;28;20552;-80
2023/08/02 09:32:26;;;;;;;0.50;0.30;;;18.80;99.90;;;;;;5045408;28;20441;-78
2023/08/02 09:34:56;;;;;;;0.80;0.80;;;19.30;99.90;;;;;;5052304;28;20527;-80
2023/08/02 09:37:30;;;;;;;0.50;0.40;;;19.70;99.90;;;;;;5071013;28;20472;-81
2023/08/02 09:39:57;;;;;;;0.70;0.70;;;19.80;99.90;;;;;;5053131;28;20779;-79
2023/08/02 09:42:25;;;;;;;0.50;0.30;;;19.60;99.90;;;;;;5047624;28;20486;-80
2023/08/02 09:44:58;;;;;;;0.50;0.40;;;19.30;99.90;;;;;;5049366;28;20449;-79
2023/08/02 09:47:27;;;;;;;0.60;0.40;;;19.20;99.90;;;;;;5045929;28;20973;-79
2023/08/02 09:50:06;;;;;;;0.60;0.50;;;19.10;99.90;;;;;;5046351;28;20450;-81
2023/08/02 09:52:34;;;;;;;0.50;0.30;;;18.90;99.90;;;;;;5047064;28;20444;-77
2023/08/02 09:55:00;;;;;;;0.50;0.40;;;18.80;99.90;;;;;;5044847;28;20992;-78
2023/08/02 09:57:29;;;;;;;0.50;0.30;;;19.00;99.90;;;;;;5043060;28;20457;-78
2023/08/02 10:00:00;;;;;;;0.50;0.40;;;19.40;99.90;;;;;;5045979;28;20451;-78
2023/08/02 10:02:28;;;;;;;0.73;0.60;;;19.60;99.90;;;;;;5049052;28;20477;-80
2023/08/02 10:04:57;;;;;;;0.50;0.30;;;19.60;99.90;;;;;;5048920;28;20447;-78
2023/08/02 10:07:31;;;;;;;0.60;0.60;;;19.40;99.90;;;;;;5045623;28;20467;-79
2023/08/02 10:10:04;;;;;;;0.50;0.40;;;19.30;99.90;;;;;;5050471;28;20446;-79
2023/08/02 10:12:32;;;;;;;0.50;0.40;;;19.00;99.90;;;;;;5052420;28;20433;-79
2023/08/02 10:14:59;;;;;;;0.57;0.57;;;18.80;99.90;;;;;;5047488;28;20532;-77
2023/08/02 10:17:27;;;;;;;0.50;0.30;;;18.60;99.90;;;;;;5050524;28;20483;-79
2023/08/02 10:19:54;;;;;;;0.50;0.30;;;18.40;99.90;;;;;;5047746;28;20458;-79
2023/08/02 10:22:22;;;;;;;0.70;0.70;;;18.40;99.90;;;;;;5047182;28;20481;-79
2023/08/02 10:24:51;;;;;;;0.50;0.40;;;18.40;99.90;;;;;;5044841;28;20520;-79
2023/08/02 10:27:20;;;;;;;0.50;0.40;;;18.40;99.90;;;;;;5049201;28;20495;-78
2023/08/02 10:29:48;;;;;;;0.50;0.40;;;18.40;99.90;;;;;;5040821;28;20445;-79
2023/08/02 10:32:17;;;;;;;0.50;0.30;;;18.50;99.90;;;;;;5053542;28;20459;-79
2023/08/02 10:34:48;;;;;;;0.50;0.40;;;18.60;99.90;;;;;;5051568;28;20457;-80
2023/08/02 10:37:16;;;;;;;0.50;0.30;;;18.90;99.90;;;;;;5034023;28;20492;-79
2023/08/02 10:39:56;;;;;;;1.57;0.60;;;19.10;99.90;;;;;;5050003;28;20437;-79
2023/08/02 10:42:26;;;;;;;0.50;0.30;;;19.20;99.90;;;;;;5042765;28;20858;-78
2023/08/02 10:45:15;;;;;;;0.50;0.37;;;19.20;99.90;;;;;;5041609;28;20443;-80
2023/08/02 10:47:42;;;;;;;0.50;0.40;;;19.30;99.90;;;;;;5043422;28;20459;-78
2023/08/02 10:50:48;;;;;;;0.50;0.30;;;19.60;99.90;;;;;;5050075;28;20529;-79
2023/08/02 10:53:15;;;;;;;0.87;0.50;;;20.40;99.90;;;;;;5044404;28;20920;-79
2023/08/02 10:56:16;;;;;;;0.50;0.40;;;21.20;99.90;;;;;;5044382;28;20847;-78
2023/08/02 10:58:51;;;;;;;0.50;0.30;;;21.30;99.90;;;;;;4948332;29;20603;-80
2023/08/02 11:01:18;;;;;;;0.50;0.30;;;21.10;99.90;;;;;;5024727;28;20458;-78
2023/08/02 11:03:45;;;;;;;0.50;0.30;;;21.00;99.90;;;;;;5045144;28;20569;-78
2023/08/02 11:06:30;;;;;;;0.50;0.30;;;20.80;99.90;;;;;;5042479;28;20457;-80
2023/08/02 11:08:56;;;;;;;0.50;0.50;;;20.80;99.90;;;;;;5048732;28;20446;-79
2023/08/02 11:11:36;;;;;;;2.50;0.50;;;21.10;99.90;;;;;;5050731;28;20473;-78
2023/08/02 11:14:02;;;;;;;0.50;0.40;;;21.40;99.90;;;;;;5044046;28;20460;-78
2023/08/02 11:16:30;;;;;;;1.87;0.80;;;21.70;99.90;;;;;;5043984;28;20475;-80
2023/08/02 11:18:57;;;;;;;0.60;0.57;;;22.00;99.90;;;;;;5047786;28;20448;-80
2023/08/02 11:21:23;;;;;;;0.80;0.70;;;21.80;99.90;;;;;;5056293;28;20446;-79
2023/08/02 11:23:50;;;;;;;1.10;0.50;;;21.60;99.90;;;;;;5050580;28;20481;-78
2023/08/02 11:26:19;;;;;;;0.50;0.30;;;21.60;99.90;;;;;;5040844;28;20830;-81
2023/08/02 11:28:49;;;;;;;0.73;0.70;;;21.80;99.90;;;;;;5043262;28;20447;-81
2023/08/02 11:31:17;;;;;;;0.67;0.40;;;22.80;99.90;;;;;;5052506;28;20966;-79
2023/08/02 11:33:44;;;;;;;0.50;0.30;;;23.80;99.90;;;;;;5045512;28;20483;-80
2023/08/02 11:36:11;;;;;;;0.50;0.30;;;24.30;99.90;;;;;;5057149;28;20466;-78
2023/08/02 11:38:38;;;;;;;0.50;0.40;;;24.90;99.90;;;;;;5054565;28;20446;-80
2023/08/02 11:41:16;;;;;;;0.50;0.30;;;25.70;99.90;;;;;;5058429;28;20447;-80
2023/08/02 11:43:43;;;;;;;0.50;0.30;;;26.60;99.90;;;;;;5048017;28;20474;-78
2023/08/02 11:46:16;;;;;;;0.50;0.40;;;26.60;99.90;;;;;;5048875;28;20521;-77
2023/08/02 11:48:43;;;;;;;0.50;0.33;;;25.60;99.90;;;;;;5052345;28;20517;-78
2023/08/02 11:51:10;;;;;;;0.50;0.30;;;24.90;99.90;;;;;;5052584;28;20448;-80
2023/08/02 11:53:48;;;;;;;0.50;0.40;;;24.00;99.90;;;;;;5051319;28;20914;-78
2023/08/02 11:56:15;;;;;;;0.50;0.30;;;23.10;99.90;;;;;;5046278;28;21410;-78
2023/08/02 11:58:42;;;;;;;0.50;0.40;;;22.80;99.90;;;;;;5051849;28;20969;-77
2023/08/02 12:01:10;;;;;;;0.50;0.40;;;22.40;99.90;;;;;;5043648;28;20518;-80
2023/08/02 12:03:38;;;;;;;0.50;0.30;;;21.90;99.90;;;;;;5046930;28;20476;-79
2023/08/02 12:06:04;;;;;;;0.50;0.30;;;21.70;99.90;;;;;;5051744;28;20444;-79
2023/08/02 12:08:31;;;;;;;0.50;0.30;;;21.70;99.90;;;;;;5051931;28;20934;-79
2023/08/02 12:10:58;;;;;;;0.50;0.40;;;21.70;99.90;;;;;;5053797;28;20447;-80
2023/08/02 12:13:25;;;;;;;0.50;0.40;;;21.60;99.90;;;;;;5053030;28;20447;-80
2023/08/02 12:16:00;;;;;;;0.50;0.30;;;21.20;99.90;;;;;;5052802;28;20515;-79
2023/08/02 12:18:27;;;;;;;0.50;0.30;;;20.90;99.90;;;;;;5040978;28;20443;-80
2023/08/02 12:20:55;;;;;;;18.43;1.17;;;20.80;99.90;;;;;;5050944;28;20436;-76
2023/08/02 12:23:31;;;;;;;0.50;0.40;;;21.00;99.90;;;;;;5069050;28;20547;-81
2023/08/02 12:25:58;;;;;;;0.50;0.30;;;20.80;99.90;;;;;;5059719;28;20439;-78
2023/08/02 12:28:25;;;;;;;0.50;0.40;;;20.90;99.90;;;;;;5060477;28;21007;-81
2023/08/02 12:31:03;;;;;;;0.50;0.40;;;21.00;99.90;;;;;;5061734;28;20468;-80
2023/08/02 12:33:31;;;;;;;0.50;0.40;;;21.20;99.90;;;;;;5044121;28;20471;-80
2023/08/02 12:35:59;;;;;;;0.50;0.30;;;21.40;99.90;;;;;;5052429;28;20453;-78
2023/08/02 12:38:29;;;;;;;0.50;0.40;;;21.30;99.90;;;;;;5041937;28;20432;-78
2023/08/02 12:40:57;;;;;;;0.50;0.30;;;21.20;99.90;;;;;;5047096;28;20455;-79
2023/08/02 12:43:24;;;;;;;0.50;0.30;;;21.20;99.90;;;;;;5049522;28;20479;-78
2023/08/02 12:45:50;;;;;;;0.50;0.40;;;21.10;99.90;;;;;;5044398;28;20448;-81
2023/08/02 12:48:17;;;;;;;0.50;0.30;;;21.10;99.90;;;;;;5052804;28;20953;-80
2023/08/02 12:50:44;;;;;;;0.50;0.30;;;21.00;99.90;;;;;;5047995;28;20445;-79
2023/08/02 12:53:12;;;;;;;0.50;0.30;;;20.70;99.90;;;;;;5045519;28;20945;-81